sensor_id;sensor_type;location;lat;lon;timestamp;temperature;humidity
2729;DHT22;1372;47.956;7.830;2023-05-07T00:00:08;12.60;99.90
2729;DHT22;1372;47.956;7.830;2023-05-07T00:02:40;12.50;99.90
2729;DHT22;1372;47.956;7.830;2023-05-07T00:05:09;12.50;99.90
2729;DHT22;1372;47.956;7.830;2023-05-07T00:07:38;12.50;99.90
2729;DHT22;1372;47.956;7.830;2023-05-07T00:10:08;12.50;99.90
2729;DHT22;1372;47.956;7.830;2023-05-07T00:12:42;12.60;99.90
2729;DHT22;1372;47.956;7.830;2023-05-07T00:15:11;12.60;99.90
2729;DHT22;1372;47.956;7.830;2023-05-07T00:17:42;12.50;99.90
2729;DHT22;1372;47.956;7.830;2023-05-07T00:20:11;12.60;99.90
2729;DHT22;1372;47.956;7.830;2023-05-07T00:22:40;12.70;99.90
2729;DHT22;1372;47.956;7.830;2023-05-07T00:25:09;12.70;99.90
2729;DHT22;1372;47.956;7.830;2023-05-07T00:27:38;12.70;99.90
2729;DHT22;1372;47.956;7.830;2023-05-07T00:30:08;12.70;99.90
2729;DHT22;1372;47.956;7.830;2023-05-07T00:32:37;12.80;99.90
2729;DHT22;1372;47.956;7.830;2023-05-07T00:35:08;12.80;99.90
2729;DHT22;1372;47.956;7.830;2023-05-07T00:37:38;12.70;99.90
2729;DHT22;1372;47.956;7.830;2023-05-07T00:40:07;12.60;99.90
2729;DHT22;1372;47.956;7.830;2023-05-07T00:42:37;12.50;99.90
2729;DHT22;1372;47.956;7.830;2023-05-07T00:45:07;12.60;99.90
2729;DHT22;1372;47.956;7.830;2023-05-07T00:47:37;12.60;99.90
2729;DHT22;1372;47.956;7.830;2023-05-07T00:50:10;12.60;99.90
2729;DHT22;1372;47.956;7.830;2023-05-07T00:52:39;12.50;99.90
2729;DHT22;1372;47.956;7.830;2023-05-07T00:55:09;12.50;99.90
2729;DHT22;1372;47.956;7.830;2023-05-07T00:57:41;12.50;99.90
2729;DHT22;1372;47.956;7.830;2023-05-07T01:00:11;12.40;99.90
2729;DHT22;1372;47.956;7.830;2023-05-07T01:02:41;12.50;99.90
2729;DHT22;1372;47.956;7.830;2023-05-07T01:05:13;12.50;99.90
2729;DHT22;1372;47.956;7.830;2023-05-07T01:07:43;12.50;99.90
2729;DHT22;1372;47.956;7.830;2023-05-07T01:10:13;12.60;99.90
2729;DHT22;1372;47.956;7.830;2023-05-07T01:12:43;12.50;99.90
2729;DHT22;1372;47.956;7.830;2023-05-07T01:15:14;12.50;99.90
2729;DHT22;1372;47.956;7.830;2023-05-07T01:17:45;12.60;99.90
2729;DHT22;1372;47.956;7.830;2023-05-07T01:20:16;12.70;99.90
2729;DHT22;1372;47.956;7.830;2023-05-07T01:22:47;12.60;99.90
2729;DHT22;1372;47.956;7.830;2023-05-07T01:25:18;12.60;99.90
2729;DHT22;1372;47.956;7.830;2023-05-07T01:27:49;12.60;99.90
2729;DHT22;1372;47.956;7.830;2023-05-07T01:30:20;12.60;99.90
2729;DHT22;1372;47.956;7.830;2023-05-07T01:32:53;12.50;99.90
2729;DHT22;1372;47.956;7.830;2023-05-07T01:35:29;12.50;99.90
2729;DHT22;1372;47.956;7.830;2023-05-07T01:38:03;12.40;99.90
2729;DHT22;1372;47.956;7.830;2023-05-07T01:40:33;12.40;99.90
2729;DHT22;1372;47.956;7.830;2023-05-07T01:43:03;12.40;99.90
2729;DHT22;1372;47.956;7.830;2023-05-07T01:45:32;12.50;99.90
2729;DHT22;1372;47.956;7.830;2023-05-07T01:48:03;12.50;99.90
2729;DHT22;1372;47.956;7.830;2023-05-07T01:50:32;12.40;99.90
2729;DHT22;1372;47.956;7.830;2023-05-07T01:53:03;12.30;99.90
2729;DHT22;1372;47.956;7.830;2023-05-07T01:55:32;12.30;99.90
2729;DHT22;1372;47.956;7.830;2023-05-07T01:58:01;12.40;99.90
2729;DHT22;1372;47.956;7.830;2023-05-07T02:00:30;12.40;99.90
2729;DHT22;1372;47.956;7.830;2023-05-07T02:02:58;12.30;99.90
2729;DHT22;1372;47.956;7.830;2023-05-07T02:05:27;12.20;99.90
2729;DHT22;1372;47.956;7.830;2023-05-07T02:07:56;12.10;99.90
2729;DHT22;1372;47.956;7.830;2023-05-07T02:10:26;12.00;99.90
2729;DHT22;1372;47.956;7.830;2023-05-07T02:12:55;12.00;99.90
2729;DHT22;1372;47.956;7.830;2023-05-07T02:15:24;12.00;99.90
2729;DHT22;1372;47.956;7.830;2023-05-07T02:18:00;12.10;99.90
2729;DHT22;1372;47.956;7.830;2023-05-07T02:20:30;12.00;99.90
2729;DHT22;1372;47.956;7.830;2023-05-07T02:22:59;11.80;99.90
2729;DHT22;1372;47.956;7.830;2023-05-07T02:25:29;11.80;99.90
2729;DHT22;1372;47.956;7.830;2023-05-07T02:27:58;11.80;99.90
2729;DHT22;1372;47.956;7.830;2023-05-07T02:30:29;11.80;99.90
2729;DHT22;1372;47.956;7.830;2023-05-07T02:32:58;11.70;99.90
2729;DHT22;1372;47.956;7.830;2023-05-07T02:35:27;11.70;99.90
2729;DHT22;1372;47.956;7.830;2023-05-07T02:37:55;11.70;99.90
2729;DHT22;1372;47.956;7.830;2023-05-07T02:40:24;11.80;99.90
2729;DHT22;1372;47.956;7.830;2023-05-07T02:42:54;11.80;99.90
2729;DHT22;1372;47.956;7.830;2023-05-07T02:45:23;11.70;99.90
2729;DHT22;1372;47.956;7.830;2023-05-07T02:47:52;11.70;99.90
2729;DHT22;1372;47.956;7.830;2023-05-07T02:50:21;11.80;99.90
2729;DHT22;1372;47.956;7.830;2023-05-07T02:52:50;11.70;99.90
2729;DHT22;1372;47.956;7.830;2023-05-07T02:55:19;11.60;99.90
2729;DHT22;1372;47.956;7.830;2023-05-07T02:57:47;11.50;99.90
2729;DHT22;1372;47.956;7.830;2023-05-07T03:00:19;11.50;99.90
2729;DHT22;1372;47.956;7.830;2023-05-07T03:02:48;11.40;99.90
2729;DHT22;1372;47.956;7.830;2023-05-07T03:05:17;11.50;99.90
2729;DHT22;1372;47.956;7.830;2023-05-07T03:07:46;11.50;99.90
2729;DHT22;1372;47.956;7.830;2023-05-07T03:10:14;11.40;99.90
2729;DHT22;1372;47.956;7.830;2023-05-07T03:12:43;11.40;99.90
2729;DHT22;1372;47.956;7.830;2023-05-07T03:15:12;11.40;99.90
2729;DHT22;1372;47.956;7.830;2023-05-07T03:17:42;11.30;99.90
2729;DHT22;1372;47.956;7.830;2023-05-07T03:20:11;11.50;99.90
2729;DHT22;1372;47.956;7.830;2023-05-07T03:22:40;11.40;99.90
2729;DHT22;1372;47.956;7.830;2023-05-07T03:25:12;11.40;99.90
2729;DHT22;1372;47.956;7.830;2023-05-07T03:27:41;11.40;99.90
2729;DHT22;1372;47.956;7.830;2023-05-07T03:30:11;11.50;99.90
2729;DHT22;1372;47.956;7.830;2023-05-07T03:32:41;11.40;99.90
2729;DHT22;1372;47.956;7.830;2023-05-07T03:35:10;11.30;99.90
2729;DHT22;1372;47.956;7.830;2023-05-07T03:37:39;11.40;99.90
2729;DHT22;1372;47.956;7.830;2023-05-07T03:40:09;11.30;99.90
2729;DHT22;1372;47.956;7.830;2023-05-07T03:42:40;11.30;99.90
2729;DHT22;1372;47.956;7.830;2023-05-07T03:45:09;11.40;99.90
2729;DHT22;1372;47.956;7.830;2023-05-07T03:47:38;11.40;99.90
2729;DHT22;1372;47.956;7.830;2023-05-07T03:50:09;11.50;99.90
2729;DHT22;1372;47.956;7.830;2023-05-07T03:52:38;11.40;99.90
2729;DHT22;1372;47.956;7.830;2023-05-07T03:55:08;11.40;99.90
2729;DHT22;1372;47.956;7.830;2023-05-07T03:57:37;11.60;99.90
2729;DHT22;1372;47.956;7.830;2023-05-07T04:00:07;11.60;99.90
2729;DHT22;1372;47.956;7.830;2023-05-07T04:02:36;11.40;99.90
2729;DHT22;1372;47.956;7.830;2023-05-07T04:05:05;11.40;99.90
2729;DHT22;1372;47.956;7.830;2023-05-07T04:07:36;11.40;99.90
2729;DHT22;1372;47.956;7.830;2023-05-07T04:10:05;11.40;99.90
2729;DHT22;1372;47.956;7.830;2023-05-07T04:12:34;11.30;99.90
2729;DHT22;1372;47.956;7.830;2023-05-07T04:15:04;11.30;99.90
2729;DHT22;1372;47.956;7.830;2023-05-07T04:17:33;11.30;99.90
2729;DHT22;1372;47.956;7.830;2023-05-07T04:20:02;11.40;99.90
2729;DHT22;1372;47.956;7.830;2023-05-07T04:22:31;11.30;99.90
2729;DHT22;1372;47.956;7.830;2023-05-07T04:25:03;11.30;99.90
2729;DHT22;1372;47.956;7.830;2023-05-07T04:27:32;11.20;99.90
2729;DHT22;1372;47.956;7.830;2023-05-07T04:30:01;11.20;99.90
2729;DHT22;1372;47.956;7.830;2023-05-07T04:32:30;11.30;99.90
2729;DHT22;1372;47.956;7.830;2023-05-07T04:34:59;11.30;99.90
2729;DHT22;1372;47.956;7.830;2023-05-07T04:37:28;11.40;99.90
2729;DHT22;1372;47.956;7.830;2023-05-07T04:39:57;11.40;99.90
2729;DHT22;1372;47.956;7.830;2023-05-07T04:42:27;11.50;99.90
2729;DHT22;1372;47.956;7.830;2023-05-07T04:44:56;11.50;99.90
2729;DHT22;1372;47.956;7.830;2023-05-07T04:47:25;11.50;99.90
2729;DHT22;1372;47.956;7.830;2023-05-07T04:49:54;11.60;99.90
2729;DHT22;1372;47.956;7.830;2023-05-07T04:52:22;11.60;99.90
2729;DHT22;1372;47.956;7.830;2023-05-07T04:54:53;11.70;99.90
2729;DHT22;1372;47.956;7.830;2023-05-07T04:57:22;11.70;99.90
2729;DHT22;1372;47.956;7.830;2023-05-07T04:59:55;11.80;99.90
2729;DHT22;1372;47.956;7.830;2023-05-07T05:02:23;11.80;99.90
2729;DHT22;1372;47.956;7.830;2023-05-07T05:04:52;11.90;99.90
2729;DHT22;1372;47.956;7.830;2023-05-07T05:07:21;11.90;99.90
2729;DHT22;1372;47.956;7.830;2023-05-07T05:09:50;12.00;99.90
2729;DHT22;1372;47.956;7.830;2023-05-07T05:12:19;12.10;99.90
2729;DHT22;1372;47.956;7.830;2023-05-07T05:14:47;12.10;99.90
2729;DHT22;1372;47.956;7.830;2023-05-07T05:17:17;12.20;99.90
2729;DHT22;1372;47.956;7.830;2023-05-07T05:19:46;12.40;99.90
2729;DHT22;1372;47.956;7.830;2023-05-07T05:22:16;12.60;99.90
2729;DHT22;1372;47.956;7.830;2023-05-07T05:24:46;12.70;99.90
2729;DHT22;1372;47.956;7.830;2023-05-07T05:27:15;12.70;99.90
2729;DHT22;1372;47.956;7.830;2023-05-07T05:29:44;12.70;99.90
2729;DHT22;1372;47.956;7.830;2023-05-07T05:32:13;12.90;99.90
2729;DHT22;1372;47.956;7.830;2023-05-07T05:34:44;13.10;99.90
2729;DHT22;1372;47.956;7.830;2023-05-07T05:37:12;13.30;99.90
2729;DHT22;1372;47.956;7.830;2023-05-07T05:39:42;13.40;99.90
2729;DHT22;1372;47.956;7.830;2023-05-07T05:42:11;13.60;99.90
2729;DHT22;1372;47.956;7.830;2023-05-07T05:44:40;13.70;99.90
2729;DHT22;1372;47.956;7.830;2023-05-07T05:47:09;13.90;99.90
2729;DHT22;1372;47.956;7.830;2023-05-07T05:49:38;14.00;99.90
2729;DHT22;1372;47.956;7.830;2023-05-07T05:52:08;14.20;99.90
2729;DHT22;1372;47.956;7.830;2023-05-07T05:54:38;14.30;99.90
2729;DHT22;1372;47.956;7.830;2023-05-07T05:57:06;14.40;99.90
2729;DHT22;1372;47.956;7.830;2023-05-07T05:59:38;14.50;99.90
2729;DHT22;1372;47.956;7.830;2023-05-07T06:02:07;14.60;99.90
2729;DHT22;1372;47.956;7.830;2023-05-07T06:04:36;14.70;99.90
2729;DHT22;1372;47.956;7.830;2023-05-07T06:07:04;14.80;99.90
2729;DHT22;1372;47.956;7.830;2023-05-07T06:09:35;14.90;99.90
2729;DHT22;1372;47.956;7.830;2023-05-07T06:12:04;14.90;99.90
2729;DHT22;1372;47.956;7.830;2023-05-07T06:14:33;15.00;99.90
2729;DHT22;1372;47.956;7.830;2023-05-07T06:17:01;15.10;99.90
2729;DHT22;1372;47.956;7.830;2023-05-07T06:19:30;15.10;99.90
2729;DHT22;1372;47.956;7.830;2023-05-07T06:21:59;15.20;99.90
2729;DHT22;1372;47.956;7.830;2023-05-07T06:24:29;15.30;99.90
2729;DHT22;1372;47.956;7.830;2023-05-07T06:27:06;15.50;99.90
2729;DHT22;1372;47.956;7.830;2023-05-07T06:29:38;15.60;99.90
2729;DHT22;1372;47.956;7.830;2023-05-07T06:32:09;15.70;99.90
2729;DHT22;1372;47.956;7.830;2023-05-07T06:34:39;15.70;99.90
2729;DHT22;1372;47.956;7.830;2023-05-07T06:37:08;15.70;99.90
2729;DHT22;1372;47.956;7.830;2023-05-07T06:39:37;15.70;99.90
2729;DHT22;1372;47.956;7.830;2023-05-07T06:42:07;15.70;99.90
2729;DHT22;1372;47.956;7.830;2023-05-07T06:44:38;15.70;99.90
2729;DHT22;1372;47.956;7.830;2023-05-07T06:47:07;15.70;99.90
2729;DHT22;1372;47.956;7.830;2023-05-07T06:49:36;15.70;99.90
2729;DHT22;1372;47.956;7.830;2023-05-07T06:52:05;15.70;99.90
2729;DHT22;1372;47.956;7.830;2023-05-07T06:54:36;15.70;99.90
2729;DHT22;1372;47.956;7.830;2023-05-07T06:57:04;15.80;99.90
2729;DHT22;1372;47.956;7.830;2023-05-07T06:59:35;15.80;99.90
2729;DHT22;1372;47.956;7.830;2023-05-07T07:02:04;15.90;99.90
2729;DHT22;1372;47.956;7.830;2023-05-07T07:04:32;15.90;99.90
2729;DHT22;1372;47.956;7.830;2023-05-07T07:07:01;15.90;99.90
2729;DHT22;1372;47.956;7.830;2023-05-07T07:09:31;16.00;99.90
2729;DHT22;1372;47.956;7.830;2023-05-07T07:11:59;16.10;99.90
2729;DHT22;1372;47.956;7.830;2023-05-07T07:14:30;16.10;99.90
2729;DHT22;1372;47.956;7.830;2023-05-07T07:16:59;16.20;99.90
2729;DHT22;1372;47.956;7.830;2023-05-07T07:19:27;16.30;99.90
2729;DHT22;1372;47.956;7.830;2023-05-07T07:21:58;16.30;99.90
2729;DHT22;1372;47.956;7.830;2023-05-07T07:24:27;16.40;99.90
2729;DHT22;1372;47.956;7.830;2023-05-07T07:26:56;16.40;99.90
2729;DHT22;1372;47.956;7.830;2023-05-07T07:29:25;16.50;99.90
2729;DHT22;1372;47.956;7.830;2023-05-07T07:31:57;16.50;99.90
2729;DHT22;1372;47.956;7.830;2023-05-07T07:34:27;16.60;99.90
2729;DHT22;1372;47.956;7.830;2023-05-07T07:36:56;16.60;99.90
2729;DHT22;1372;47.956;7.830;2023-05-07T07:39:25;16.70;99.90
2729;DHT22;1372;47.956;7.830;2023-05-07T07:41:54;16.80;99.90
2729;DHT22;1372;47.956;7.830;2023-05-07T07:44:23;16.80;99.90
2729;DHT22;1372;47.956;7.830;2023-05-07T07:46:52;16.90;99.90
2729;DHT22;1372;47.956;7.830;2023-05-07T07:49:22;16.90;99.90
2729;DHT22;1372;47.956;7.830;2023-05-07T07:51:51;16.90;99.90
2729;DHT22;1372;47.956;7.830;2023-05-07T07:54:20;16.90;99.90
2729;DHT22;1372;47.956;7.830;2023-05-07T07:56:49;17.00;99.90
2729;DHT22;1372;47.956;7.830;2023-05-07T07:59:18;17.00;99.90
2729;DHT22;1372;47.956;7.830;2023-05-07T08:01:48;17.10;99.90
2729;DHT22;1372;47.956;7.830;2023-05-07T08:04:19;17.20;99.90
2729;DHT22;1372;47.956;7.830;2023-05-07T08:06:52;17.20;99.90
2729;DHT22;1372;47.956;7.830;2023-05-07T08:09:21;17.30;99.90
2729;DHT22;1372;47.956;7.830;2023-05-07T08:11:55;17.40;99.90
2729;DHT22;1372;47.956;7.830;2023-05-07T08:14:28;17.50;99.90
2729;DHT22;1372;47.956;7.830;2023-05-07T08:17:01;17.50;99.90
2729;DHT22;1372;47.956;7.830;2023-05-07T08:19:31;17.70;99.90
2729;DHT22;1372;47.956;7.830;2023-05-07T08:22:06;17.80;99.90
2729;DHT22;1372;47.956;7.830;2023-05-07T08:24:39;17.90;99.90
2729;DHT22;1372;47.956;7.830;2023-05-07T08:27:09;18.00;99.90
2729;DHT22;1372;47.956;7.830;2023-05-07T08:29:39;18.10;99.90
2729;DHT22;1372;47.956;7.830;2023-05-07T08:32:10;18.20;99.90
2729;DHT22;1372;47.956;7.830;2023-05-07T08:34:39;18.20;99.90
2729;DHT22;1372;47.956;7.830;2023-05-07T08:37:10;18.20;99.90
2729;DHT22;1372;47.956;7.830;2023-05-07T08:39:38;18.20;99.90
2729;DHT22;1372;47.956;7.830;2023-05-07T08:42:09;18.10;99.90
2729;DHT22;1372;47.956;7.830;2023-05-07T08:44:41;18.10;99.90
2729;DHT22;1372;47.956;7.830;2023-05-07T08:47:14;18.10;99.90
2729;DHT22;1372;47.956;7.830;2023-05-07T08:49:43;18.20;99.90
2729;DHT22;1372;47.956;7.830;2023-05-07T08:52:13;18.20;99.90
2729;DHT22;1372;47.956;7.830;2023-05-07T08:54:43;18.30;99.90
2729;DHT22;1372;47.956;7.830;2023-05-07T08:57:12;18.30;99.90
2729;DHT22;1372;47.956;7.830;2023-05-07T08:59:41;18.50;99.90
2729;DHT22;1372;47.956;7.830;2023-05-07T09:02:10;18.60;99.90
2729;DHT22;1372;47.956;7.830;2023-05-07T09:04:40;18.60;99.90
2729;DHT22;1372;47.956;7.830;2023-05-07T09:07:09;18.70;99.90
2729;DHT22;1372;47.956;7.830;2023-05-07T09:09:39;18.80;99.90
2729;DHT22;1372;47.956;7.830;2023-05-07T09:12:08;18.80;99.90
2729;DHT22;1372;47.956;7.830;2023-05-07T09:14:39;18.90;99.90
2729;DHT22;1372;47.956;7.830;2023-05-07T09:17:08;19.00;99.90
2729;DHT22;1372;47.956;7.830;2023-05-07T09:19:37;19.10;99.90
2729;DHT22;1372;47.956;7.830;2023-05-07T09:22:06;19.20;99.90
2729;DHT22;1372;47.956;7.830;2023-05-07T09:24:47;19.20;99.90
2729;DHT22;1372;47.956;7.830;2023-05-07T09:27:17;19.30;99.90
2729;DHT22;1372;47.956;7.830;2023-05-07T09:29:46;19.20;99.90
2729;DHT22;1372;47.956;7.830;2023-05-07T09:32:15;19.20;99.90
2729;DHT22;1372;47.956;7.830;2023-05-07T09:34:44;19.20;99.90
2729;DHT22;1372;47.956;7.830;2023-05-07T09:37:18;19.30;99.90
2729;DHT22;1372;47.956;7.830;2023-05-07T09:39:52;19.30;99.90
2729;DHT22;1372;47.956;7.830;2023-05-07T09:42:23;19.30;99.90
2729;DHT22;1372;47.956;7.830;2023-05-07T09:44:54;19.50;99.90
2729;DHT22;1372;47.956;7.830;2023-05-07T09:47:26;19.50;99.90
2729;DHT22;1372;47.956;7.830;2023-05-07T09:49:59;19.40;99.90
2729;DHT22;1372;47.956;7.830;2023-05-07T09:52:33;19.40;99.90
2729;DHT22;1372;47.956;7.830;2023-05-07T09:55:05;19.20;99.90
2729;DHT22;1372;47.956;7.830;2023-05-07T09:57:38;19.00;99.90
2729;DHT22;1372;47.956;7.830;2023-05-07T10:00:08;18.80;99.90
2729;DHT22;1372;47.956;7.830;2023-05-07T10:02:39;18.70;99.90
2729;DHT22;1372;47.956;7.830;2023-05-07T10:05:14;18.50;99.90
2729;DHT22;1372;47.956;7.830;2023-05-07T10:07:44;18.40;99.90
2729;DHT22;1372;47.956;7.830;2023-05-07T10:10:15;18.30;99.90
2729;DHT22;1372;47.956;7.830;2023-05-07T10:12:45;18.00;99.90
2729;DHT22;1372;47.956;7.830;2023-05-07T10:15:14;17.70;99.90
2729;DHT22;1372;47.956;7.830;2023-05-07T10:17:44;17.50;99.90
2729;DHT22;1372;47.956;7.830;2023-05-07T10:20:13;17.40;99.90
2729;DHT22;1372;47.956;7.830;2023-05-07T10:22:44;17.20;99.90
2729;DHT22;1372;47.956;7.830;2023-05-07T10:25:18;17.20;99.90
2729;DHT22;1372;47.956;7.830;2023-05-07T10:27:53;17.10;99.90
2729;DHT22;1372;47.956;7.830;2023-05-07T10:30:30;17.00;99.90
2729;DHT22;1372;47.956;7.830;2023-05-07T10:33:06;16.90;99.90
2729;DHT22;1372;47.956;7.830;2023-05-07T10:35:40;16.90;99.90
2729;DHT22;1372;47.956;7.830;2023-05-07T10:38:10;16.90;99.90
2729;DHT22;1372;47.956;7.830;2023-05-07T10:41:01;16.80;99.90
2729;DHT22;1372;47.956;7.830;2023-05-07T10:43:43;16.70;99.90
2729;DHT22;1372;47.956;7.830;2023-05-07T10:46:15;16.80;99.90
2729;DHT22;1372;47.956;7.830;2023-05-07T10:49:07;16.90;99.90
2729;DHT22;1372;47.956;7.830;2023-05-07T10:51:43;17.10;99.90
2729;DHT22;1372;47.956;7.830;2023-05-07T10:54:21;17.20;99.90
2729;DHT22;1372;47.956;7.830;2023-05-07T10:56:53;17.30;99.90
2729;DHT22;1372;47.956;7.830;2023-05-07T10:59:36;17.40;99.90
2729;DHT22;1372;47.956;7.830;2023-05-07T11:02:17;17.60;99.90
2729;DHT22;1372;47.956;7.830;2023-05-07T11:05:20;17.80;99.90
2729;DHT22;1372;47.956;7.830;2023-05-07T11:07:55;18.10;99.90
2729;DHT22;1372;47.956;7.830;2023-05-07T11:10:48;18.30;99.90
2729;DHT22;1372;47.956;7.830;2023-05-07T11:16:23;18.70;99.90
2729;DHT22;1372;47.956;7.830;2023-05-07T11:19:50;18.90;99.90
2729;DHT22;1372;47.956;7.830;2023-05-07T11:22:40;19.00;99.90
2729;DHT22;1372;47.956;7.830;2023-05-07T11:25:17;19.10;99.90
2729;DHT22;1372;47.956;7.830;2023-05-07T11:27:47;19.20;99.90
2729;DHT22;1372;47.956;7.830;2023-05-07T11:30:19;19.30;99.90
2729;DHT22;1372;47.956;7.830;2023-05-07T11:32:48;19.40;99.90
2729;DHT22;1372;47.956;7.830;2023-05-07T11:35:18;19.60;99.90
2729;DHT22;1372;47.956;7.830;2023-05-07T11:37:59;19.70;99.90
2729;DHT22;1372;47.956;7.830;2023-05-07T11:40:29;19.70;99.90
2729;DHT22;1372;47.956;7.830;2023-05-07T11:42:58;19.80;99.90
2729;DHT22;1372;47.956;7.830;2023-05-07T11:45:29;19.70;99.90
2729;DHT22;1372;47.956;7.830;2023-05-07T11:48:02;19.60;99.90
2729;DHT22;1372;47.956;7.830;2023-05-07T11:50:34;19.40;99.90
2729;DHT22;1372;47.956;7.830;2023-05-07T11:53:07;19.30;99.90
2729;DHT22;1372;47.956;7.830;2023-05-07T11:56:13;19.30;99.90
2729;DHT22;1372;47.956;7.830;2023-05-07T11:58:54;19.30;99.90
2729;DHT22;1372;47.956;7.830;2023-05-07T12:01:24;19.20;99.90
2729;DHT22;1372;47.956;7.830;2023-05-07T12:03:55;19.10;99.90
2729;DHT22;1372;47.956;7.830;2023-05-07T12:06:28;19.00;99.90
2729;DHT22;1372;47.956;7.830;2023-05-07T12:09:01;19.00;99.90
2729;DHT22;1372;47.956;7.830;2023-05-07T12:11:31;19.10;99.90
2729;DHT22;1372;47.956;7.830;2023-05-07T12:14:00;19.10;99.90
2729;DHT22;1372;47.956;7.830;2023-05-07T12:16:33;19.20;99.90
2729;DHT22;1372;47.956;7.830;2023-05-07T12:19:15;19.30;99.90
2729;DHT22;1372;47.956;7.830;2023-05-07T12:21:53;19.30;99.90
2729;DHT22;1372;47.956;7.830;2023-05-07T12:24:27;19.40;99.90
2729;DHT22;1372;47.956;7.830;2023-05-07T12:27:00;19.50;99.90
2729;DHT22;1372;47.956;7.830;2023-05-07T12:29:29;19.50;99.90
2729;DHT22;1372;47.956;7.830;2023-05-07T12:32:15;19.30;99.90
2729;DHT22;1372;47.956;7.830;2023-05-07T12:34:45;19.30;99.90
2729;DHT22;1372;47.956;7.830;2023-05-07T12:37:23;19.30;99.90
2729;DHT22;1372;47.956;7.830;2023-05-07T12:40:04;19.20;99.90
2729;DHT22;1372;47.956;7.830;2023-05-07T12:42:44;19.20;99.90
2729;DHT22;1372;47.956;7.830;2023-05-07T12:45:16;19.20;99.90
2729;DHT22;1372;47.956;7.830;2023-05-07T12:47:50;19.10;99.90
2729;DHT22;1372;47.956;7.830;2023-05-07T12:50:24;19.10;99.90
2729;DHT22;1372;47.956;7.830;2023-05-07T12:52:53;19.20;99.90
2729;DHT22;1372;47.956;7.830;2023-05-07T12:55:24;19.20;99.90
2729;DHT22;1372;47.956;7.830;2023-05-07T12:57:54;19.20;99.90
2729;DHT22;1372;47.956;7.830;2023-05-07T13:00:35;19.20;99.90
2729;DHT22;1372;47.956;7.830;2023-05-07T13:03:06;19.20;99.90
2729;DHT22;1372;47.956;7.830;2023-05-07T13:05:37;19.20;99.90
2729;DHT22;1372;47.956;7.830;2023-05-07T13:08:07;19.20;99.90
2729;DHT22;1372;47.956;7.830;2023-05-07T13:10:37;19.20;99.90
2729;DHT22;1372;47.956;7.830;2023-05-07T13:13:09;19.20;99.90
2729;DHT22;1372;47.956;7.830;2023-05-07T13:15:39;19.20;99.90
2729;DHT22;1372;47.956;7.830;2023-05-07T13:18:09;19.10;99.90
2729;DHT22;1372;47.956;7.830;2023-05-07T13:20:39;19.00;99.90
2729;DHT22;1372;47.956;7.830;2023-05-07T13:23:08;19.00;99.90
2729;DHT22;1372;47.956;7.830;2023-05-07T13:25:37;19.00;99.90
2729;DHT22;1372;47.956;7.830;2023-05-07T13:28:06;19.00;99.90
2729;DHT22;1372;47.956;7.830;2023-05-07T13:30:38;19.10;99.90
2729;DHT22;1372;47.956;7.830;2023-05-07T13:33:09;19.10;99.90
2729;DHT22;1372;47.956;7.830;2023-05-07T13:35:38;19.10;99.90
2729;DHT22;1372;47.956;7.830;2023-05-07T13:38:08;19.10;99.90
2729;DHT22;1372;47.956;7.830;2023-05-07T13:40:37;19.20;99.90
2729;DHT22;1372;47.956;7.830;2023-05-07T13:43:06;19.40;99.90
2729;DHT22;1372;47.956;7.830;2023-05-07T13:45:36;19.50;99.90
2729;DHT22;1372;47.956;7.830;2023-05-07T13:48:05;19.60;99.90
2729;DHT22;1372;47.956;7.830;2023-05-07T13:50:38;19.60;99.90
2729;DHT22;1372;47.956;7.830;2023-05-07T13:53:07;19.60;99.90
2729;DHT22;1372;47.956;7.830;2023-05-07T13:55:36;19.60;99.90
2729;DHT22;1372;47.956;7.830;2023-05-07T13:58:05;19.60;99.90
2729;DHT22;1372;47.956;7.830;2023-05-07T14:00:35;19.50;99.90
2729;DHT22;1372;47.956;7.830;2023-05-07T14:03:04;19.60;99.90
2729;DHT22;1372;47.956;7.830;2023-05-07T14:05:40;19.50;99.90
2729;DHT22;1372;47.956;7.830;2023-05-07T14:08:09;19.40;99.90
2729;DHT22;1372;47.956;7.830;2023-05-07T14:10:38;19.50;99.90
2729;DHT22;1372;47.956;7.830;2023-05-07T14:13:09;19.40;99.90
2729;DHT22;1372;47.956;7.830;2023-05-07T14:15:38;19.50;99.90
2729;DHT22;1372;47.956;7.830;2023-05-07T14:18:07;19.60;99.90
2729;DHT22;1372;47.956;7.830;2023-05-07T14:20:36;19.70;99.90
2729;DHT22;1372;47.956;7.830;2023-05-07T14:23:07;19.80;99.90
2729;DHT22;1372;47.956;7.830;2023-05-07T14:25:36;20.10;99.90
2729;DHT22;1372;47.956;7.830;2023-05-07T14:28:05;20.50;99.90
2729;DHT22;1372;47.956;7.830;2023-05-07T14:30:35;20.50;99.90
2729;DHT22;1372;47.956;7.830;2023-05-07T14:33:04;20.70;99.90
2729;DHT22;1372;47.956;7.830;2023-05-07T14:35:35;20.90;99.90
2729;DHT22;1372;47.956;7.830;2023-05-07T14:38:05;21.00;99.90
2729;DHT22;1372;47.956;7.830;2023-05-07T14:40:34;21.40;99.90
2729;DHT22;1372;47.956;7.830;2023-05-07T14:43:06;21.60;99.90
2729;DHT22;1372;47.956;7.830;2023-05-07T14:45:35;21.80;99.90
2729;DHT22;1372;47.956;7.830;2023-05-07T14:48:04;21.80;99.90
2729;DHT22;1372;47.956;7.830;2023-05-07T14:50:36;21.60;99.90
2729;DHT22;1372;47.956;7.830;2023-05-07T14:53:06;21.60;99.90
2729;DHT22;1372;47.956;7.830;2023-05-07T14:55:38;21.70;99.90
2729;DHT22;1372;47.956;7.830;2023-05-07T14:58:10;21.70;99.90
2729;DHT22;1372;47.956;7.830;2023-05-07T15:00:40;21.70;99.90
2729;DHT22;1372;47.956;7.830;2023-05-07T15:03:10;21.60;99.90
2729;DHT22;1372;47.956;7.830;2023-05-07T15:05:40;21.70;99.90
2729;DHT22;1372;47.956;7.830;2023-05-07T15:08:11;21.70;99.90
2729;DHT22;1372;47.956;7.830;2023-05-07T15:10:40;21.70;99.90
2729;DHT22;1372;47.956;7.830;2023-05-07T15:13:09;21.70;99.90
2729;DHT22;1372;47.956;7.830;2023-05-07T15:15:42;21.40;99.90
2729;DHT22;1372;47.956;7.830;2023-05-07T15:18:11;21.00;99.90
2729;DHT22;1372;47.956;7.830;2023-05-07T15:20:41;20.80;99.90
2729;DHT22;1372;47.956;7.830;2023-05-07T15:23:12;20.70;99.90
2729;DHT22;1372;47.956;7.830;2023-05-07T15:25:41;20.60;99.90
2729;DHT22;1372;47.956;7.830;2023-05-07T15:28:10;20.40;99.90
2729;DHT22;1372;47.956;7.830;2023-05-07T15:30:39;20.30;99.90
2729;DHT22;1372;47.956;7.830;2023-05-07T15:33:07;20.50;99.90
2729;DHT22;1372;47.956;7.830;2023-05-07T15:35:37;20.80;99.90
2729;DHT22;1372;47.956;7.830;2023-05-07T15:38:06;21.10;99.90
2729;DHT22;1372;47.956;7.830;2023-05-07T15:40:37;21.20;99.90
2729;DHT22;1372;47.956;7.830;2023-05-07T15:43:11;21.10;99.90
2729;DHT22;1372;47.956;7.830;2023-05-07T15:45:42;21.00;99.90
2729;DHT22;1372;47.956;7.830;2023-05-07T15:48:11;20.90;99.90
2729;DHT22;1372;47.956;7.830;2023-05-07T15:50:40;20.80;99.90
2729;DHT22;1372;47.956;7.830;2023-05-07T15:53:11;20.60;99.90
2729;DHT22;1372;47.956;7.830;2023-05-07T15:55:42;20.40;99.90
2729;DHT22;1372;47.956;7.830;2023-05-07T15:58:12;20.30;99.90
2729;DHT22;1372;47.956;7.830;2023-05-07T16:00:43;20.10;99.90
2729;DHT22;1372;47.956;7.830;2023-05-07T16:03:12;20.00;99.90
2729;DHT22;1372;47.956;7.830;2023-05-07T16:05:44;20.00;99.90
2729;DHT22;1372;47.956;7.830;2023-05-07T16:08:15;20.00;99.90
2729;DHT22;1372;47.956;7.830;2023-05-07T16:10:46;20.00;99.90
2729;DHT22;1372;47.956;7.830;2023-05-07T16:13:15;19.90;99.90
2729;DHT22;1372;47.956;7.830;2023-05-07T16:15:48;19.90;99.90
2729;DHT22;1372;47.956;7.830;2023-05-07T16:18:16;19.80;99.90
2729;DHT22;1372;47.956;7.830;2023-05-07T16:20:45;19.80;99.90
2729;DHT22;1372;47.956;7.830;2023-05-07T16:23:17;19.80;99.90
2729;DHT22;1372;47.956;7.830;2023-05-07T16:25:48;19.80;99.90
2729;DHT22;1372;47.956;7.830;2023-05-07T16:28:17;19.80;99.90